sensor_id;sensor_type;location;lat;lon;timestamp;pressure;altitude;pressure_sealevel;temperature;humidity
26978;BME280;56314;48.088;11.642;2023-01-25T00:01:29;96830.69;;;0.27;100.00
26978;BME280;56314;48.088;11.642;2023-01-25T00:03:55;96826.38;;;0.29;100.00
26978;BME280;56314;48.088;11.642;2023-01-25T00:06:20;96831.50;;;0.32;100.00
26978;BME280;56314;48.088;11.642;2023-01-25T00:08:49;96834.25;;;0.20;100.00
26978;BME280;56314;48.088;11.642;2023-01-25T00:11:14;96833.38;;;0.21;100.00
26978;BME280;56314;48.088;11.642;2023-01-25T00:13:41;96829.22;;;0.09;100.00
26978;BME280;56314;48.088;11.642;2023-01-25T00:16:07;96832.59;;;0.14;100.00
26978;BME280;56314;48.088;11.642;2023-01-25T00:18:32;96832.66;;;0.08;100.00
26978;BME280;56314;48.088;11.642;2023-01-25T00:20:57;96830.91;;;0.10;100.00
26978;BME280;56314;48.088;11.642;2023-01-25T00:23:23;96829.16;;;0.15;100.00
26978;BME280;56314;48.088;11.642;2023-01-25T00:25:48;96833.50;;;0.10;100.00
26978;BME280;56314;48.088;11.642;2023-01-25T00:28:20;96836.84;;;0.18;100.00
26978;BME280;56314;48.088;11.642;2023-01-25T00:30:45;96828.28;;;0.16;100.00
26978;BME280;56314;48.088;11.642;2023-01-25T00:35:43;96832.63;;;0.11;100.00
26978;BME280;56314;48.088;11.642;2023-01-25T00:38:33;96830.94;;;0.08;100.00
26978;BME280;56314;48.088;11.642;2023-01-25T00:40:59;96824.91;;;0.09;100.00
26978;BME280;56314;48.088;11.642;2023-01-25T00:43:25;96823.03;;;0.19;100.00
26978;BME280;56314;48.088;11.642;2023-01-25T00:45:51;96812.75;;;0.18;100.00
26978;BME280;56314;48.088;11.642;2023-01-25T00:48:16;96815.25;;;0.22;100.00
26978;BME280;56314;48.088;11.642;2023-01-25T00:50:42;96827.44;;;0.12;100.00
26978;BME280;56314;48.088;11.642;2023-01-25T00:53:07;96826.53;;;0.17;100.00
26978;BME280;56314;48.088;11.642;2023-01-25T00:55:32;96822.28;;;0.12;100.00
26978;BME280;56314;48.088;11.642;2023-01-25T00:57:58;96825.75;;;0.11;100.00
26978;BME280;56314;48.088;11.642;2023-01-25T01:00:23;96831.78;;;0.10;100.00
26978;BME280;56314;48.088;11.642;2023-01-25T01:02:48;96824.06;;;0.07;100.00
26978;BME280;56314;48.088;11.642;2023-01-25T01:05:14;96825.69;;;0.14;100.00
26978;BME280;56314;48.088;11.642;2023-01-25T01:07:39;96830.06;;;0.11;100.00
26978;BME280;56314;48.088;11.642;2023-01-25T01:10:05;96825.81;;;0.05;100.00
26978;BME280;56314;48.088;11.642;2023-01-25T01:12:30;96836.09;;;0.11;100.00
26978;BME280;56314;48.088;11.642;2023-01-25T01:14:56;96828.41;;;0.05;100.00
26978;BME280;56314;48.088;11.642;2023-01-25T01:17:21;96827.50;;;0.08;100.00
26978;BME280;56314;48.088;11.642;2023-01-25T01:19:46;96830.84;;;0.16;100.00
26978;BME280;56314;48.088;11.642;2023-01-25T01:22:12;96830.16;;;0.05;100.00
26978;BME280;56314;48.088;11.642;2023-01-25T01:24:37;96827.63;;;-0.02;100.00
26978;BME280;56314;48.088;11.642;2023-01-25T01:27:03;96835.41;;;-0.05;100.00
26978;BME280;56314;48.088;11.642;2023-01-25T01:29:28;96834.50;;;-0.01;100.00
26978;BME280;56314;48.088;11.642;2023-01-25T01:31:53;96816.38;;;0.03;100.00
26978;BME280;56314;48.088;11.642;2023-01-25T01:34:20;96819.75;;;0.08;100.00
26978;BME280;56314;48.088;11.642;2023-01-25T01:36:45;96815.47;;;0.08;100.00
26978;BME280;56314;48.088;11.642;2023-01-25T01:39:11;96812.91;;;0.05;100.00
26978;BME280;56314;48.088;11.642;2023-01-25T01:41:36;96812.91;;;0.05;100.00
26978;BME280;56314;48.088;11.642;2023-01-25T01:44:03;96811.19;;;0.04;100.00
26978;BME280;56314;48.088;11.642;2023-01-25T01:46:37;96811.19;;;0.04;100.00
26978;BME280;56314;48.088;11.642;2023-01-25T01:49:10;96806.94;;;0.02;100.00
26978;BME280;56314;48.088;11.642;2023-01-25T01:51:49;96808.66;;;-0.01;100.00
26978;BME280;56314;48.088;11.642;2023-01-25T01:54:22;96817.31;;;-0.05;100.00
26978;BME280;56314;48.088;11.642;2023-01-25T01:59:26;96819.16;;;-0.13;100.00
26978;BME280;56314;48.088;11.642;2023-01-25T02:01:54;96807.91;;;-0.09;100.00
26978;BME280;56314;48.088;11.642;2023-01-25T02:04:21;96812.22;;;-0.09;100.00
26978;BME280;56314;48.088;11.642;2023-01-25T02:07:03;96813.09;;;-0.10;100.00
26978;BME280;56314;48.088;11.642;2023-01-25T02:09:32;96809.69;;;-0.14;100.00
26978;BME280;56314;48.088;11.642;2023-01-25T02:11:59;96813.09;;;-0.09;100.00
26978;BME280;56314;48.088;11.642;2023-01-25T02:14:26;96803.59;;;-0.08;100.00
26978;BME280;56314;48.088;11.642;2023-01-25T02:16:52;96806.25;;;-0.13;100.00
26978;BME280;56314;48.088;11.642;2023-01-25T02:21:56;96812.31;;;-0.17;100.00
26978;BME280;56314;48.088;11.642;2023-01-25T02:24:27;96803.81;;;-0.25;100.00
26978;BME280;56314;48.088;11.642;2023-01-25T02:26:55;96803.81;;;-0.25;100.00
26978;BME280;56314;48.088;11.642;2023-01-25T02:29:21;96810.56;;;-0.13;100.00
26978;BME280;56314;48.088;11.642;2023-01-25T02:31:48;96807.19;;;-0.20;100.00
26978;BME280;56314;48.088;11.642;2023-01-25T02:34:17;96796.75;;;-0.11;100.00
26978;BME280;56314;48.088;11.642;2023-01-25T02:36:42;96802.00;;;-0.19;100.00
26978;BME280;56314;48.088;11.642;2023-01-25T02:39:14;96799.41;;;-0.19;100.00
26978;BME280;56314;48.088;11.642;2023-01-25T02:41:43;96801.28;;;-0.30;100.00
26978;BME280;56314;48.088;11.642;2023-01-25T02:44:12;96796.09;;;-0.28;100.00
26978;BME280;56314;48.088;11.642;2023-01-25T02:46:38;96797.91;;;-0.37;100.00
26978;BME280;56314;48.088;11.642;2023-01-25T02:49:05;96793.56;;;-0.33;100.00
26978;BME280;56314;48.088;11.642;2023-01-25T02:51:34;96784.91;;;-0.29;100.00
26978;BME280;56314;48.088;11.642;2023-01-25T02:54:01;96786.63;;;-0.28;100.00
26978;BME280;56314;48.088;11.642;2023-01-25T02:56:26;96792.69;;;-0.30;100.00
26978;BME280;56314;48.088;11.642;2023-01-25T02:58:52;96787.53;;;-0.32;100.00
26978;BME280;56314;48.088;11.642;2023-01-25T03:01:18;96790.94;;;-0.30;100.00
26978;BME280;56314;48.088;11.642;2023-01-25T03:03:43;96790.06;;;-0.27;100.00
26978;BME280;56314;48.088;11.642;2023-01-25T03:06:09;96783.22;;;-0.33;100.00
26978;BME280;56314;48.088;11.642;2023-01-25T03:08:35;96784.94;;;-0.32;100.00
26978;BME280;56314;48.088;11.642;2023-01-25T03:11:02;96778.09;;;-0.35;100.00
26978;BME280;56314;48.088;11.642;2023-01-25T03:13:28;96780.78;;;-0.44;100.00
26978;BME280;56314;48.088;11.642;2023-01-25T03:15:59;96772.13;;;-0.38;100.00
26978;BME280;56314;48.088;11.642;2023-01-25T03:18:25;96785.03;;;-0.38;100.00
26978;BME280;56314;48.088;11.642;2023-01-25T03:20:50;96782.38;;;-0.32;100.00
26978;BME280;56314;48.088;11.642;2023-01-25T03:23:15;96779.81;;;-0.35;100.00
26978;BME280;56314;48.088;11.642;2023-01-25T03:25:41;96764.28;;;-0.32;100.00
26978;BME280;56314;48.088;11.642;2023-01-25T03:28:06;96761.72;;;-0.32;100.00
26978;BME280;56314;48.088;11.642;2023-01-25T03:30:31;96767.81;;;-0.38;100.00
26978;BME280;56314;48.088;11.642;2023-01-25T03:32:57;96774.63;;;-0.32;100.00
26978;BME280;56314;48.088;11.642;2023-01-25T03:35:22;96772.16;;;-0.41;100.00
26978;BME280;56314;48.088;11.642;2023-01-25T03:37:48;96776.34;;;-0.34;100.00
26978;BME280;56314;48.088;11.642;2023-01-25T03:40:13;96773.78;;;-0.34;100.00
26978;BME280;56314;48.088;11.642;2023-01-25T03:42:38;96766.91;;;-0.35;100.00
26978;BME280;56314;48.088;11.642;2023-01-25T03:45:04;96764.31;;;-0.35;100.00
26978;BME280;56314;48.088;11.642;2023-01-25T03:47:30;96771.19;;;-0.33;100.00
26978;BME280;56314;48.088;11.642;2023-01-25T03:49:55;96764.31;;;-0.34;100.00
26978;BME280;56314;48.088;11.642;2023-01-25T03:52:36;96755.66;;;-0.28;100.00
26978;BME280;56314;48.088;11.642;2023-01-25T03:55:08;96757.31;;;-0.24;100.00
26978;BME280;56314;48.088;11.642;2023-01-25T03:57:33;96761.75;;;-0.35;100.00
26978;BME280;56314;48.088;11.642;2023-01-25T03:59:58;96765.06;;;-0.25;100.00
26978;BME280;56314;48.088;11.642;2023-01-25T04:02:24;96758.94;;;-0.17;100.00
26978;BME280;56314;48.088;11.642;2023-01-25T04:04:49;96765.88;;;-0.22;100.00
26978;BME280;56314;48.088;11.642;2023-01-25T04:07:14;96767.75;;;-0.32;100.00
26978;BME280;56314;48.088;11.642;2023-01-25T04:09:40;96763.44;;;-0.31;100.00
26978;BME280;56314;48.088;11.642;2023-01-25T04:12:05;96772.88;;;-0.30;100.00
26978;BME280;56314;48.088;11.642;2023-01-25T04:14:31;96765.97;;;-0.28;100.00
26978;BME280;56314;48.088;11.642;2023-01-25T04:16:56;96765.03;;;-0.22;100.00
26978;BME280;56314;48.088;11.642;2023-01-25T04:19:21;96759.91;;;-0.25;100.00
26978;BME280;56314;48.088;11.642;2023-01-25T04:21:46;96755.63;;;-0.25;100.00
26978;BME280;56314;48.088;11.642;2023-01-25T04:24:12;96754.72;;;-0.24;100.00
26978;BME280;56314;48.088;11.642;2023-01-25T04:26:37;96746.13;;;-0.24;100.00
26978;BME280;56314;48.088;11.642;2023-01-25T04:29:02;96741.88;;;-0.28;100.00
26978;BME280;56314;48.088;11.642;2023-01-25T04:31:28;96749.72;;;-0.35;100.00
26978;BME280;56314;48.088;11.642;2023-01-25T04:33:54;96747.16;;;-0.36;100.00
26978;BME280;56314;48.088;11.642;2023-01-25T04:36:19;96748.94;;;-0.44;100.00
26978;BME280;56314;48.088;11.642;2023-01-25T04:38:45;96744.56;;;-0.38;100.00
26978;BME280;56314;48.088;11.642;2023-01-25T04:41:10;96743.66;;;-0.30;100.00
26978;BME280;56314;48.088;11.642;2023-01-25T04:43:35;96743.69;;;-0.34;100.00
26978;BME280;56314;48.088;11.642;2023-01-25T04:46:01;96742.91;;;-0.43;100.00
26978;BME280;56314;48.088;11.642;2023-01-25T04:48:27;96745.59;;;-0.50;100.00
26978;BME280;56314;48.088;11.642;2023-01-25T04:50:52;96742.88;;;-0.37;100.00
26978;BME280;56314;48.088;11.642;2023-01-25T04:53:17;96736.06;;;-0.48;100.00
26978;BME280;56314;48.088;11.642;2023-01-25T04:55:44;96740.44;;;-0.50;100.00
26978;BME280;56314;48.088;11.642;2023-01-25T04:58:11;96727.59;;;-0.54;100.00
26978;BME280;56314;48.088;11.642;2023-01-25T05:00:36;96729.25;;;-0.49;100.00
26978;BME280;56314;48.088;11.642;2023-01-25T05:03:02;96718.00;;;-0.48;100.00
26978;BME280;56314;48.088;11.642;2023-01-25T05:05:27;96725.81;;;-0.51;100.00
26978;BME280;56314;48.088;11.642;2023-01-25T05:07:53;96714.63;;;-0.50;100.00
26978;BME280;56314;48.088;11.642;2023-01-25T05:10:18;96721.53;;;-0.52;100.00
26978;BME280;56314;48.088;11.642;2023-01-25T05:12:44;96717.22;;;-0.53;100.00
26978;BME280;56314;48.088;11.642;2023-01-25T05:15:09;96718.91;;;-0.49;100.00
26978;BME280;56314;48.088;11.642;2023-01-25T05:17:35;96718.00;;;-0.46;100.00
26978;BME280;56314;48.088;11.642;2023-01-25T05:20:00;96714.50;;;-0.40;100.00
26978;BME280;56314;48.088;11.642;2023-01-25T05:22:26;96717.16;;;-0.45;100.00
26978;BME280;56314;48.088;11.642;2023-01-25T05:24:51;96722.38;;;-0.50;100.00
26978;BME280;56314;48.088;11.642;2023-01-25T05:27:18;96710.25;;;-0.43;100.00
26978;BME280;56314;48.088;11.642;2023-01-25T05:29:45;96713.63;;;-0.41;100.00
26978;BME280;56314;48.088;11.642;2023-01-25T05:32:19;96712.75;;;-0.38;100.00
26978;BME280;56314;48.088;11.642;2023-01-25T05:34:45;96708.44;;;-0.38;100.00
26978;BME280;56314;48.088;11.642;2023-01-25T05:37:13;96703.22;;;-0.33;100.00
26978;BME280;56314;48.088;11.642;2023-01-25T05:39:39;96706.72;;;-0.37;100.00
26978;BME280;56314;48.088;11.642;2023-01-25T05:42:14;96710.09;;;-0.32;100.00
26978;BME280;56314;48.088;11.642;2023-01-25T05:44:40;96703.38;;;-0.44;100.00
26978;BME280;56314;48.088;11.642;2023-01-25T05:47:06;96708.47;;;-0.41;100.00
26978;BME280;56314;48.088;11.642;2023-01-25T05:49:32;96708.47;;;-0.39;100.00
26978;BME280;56314;48.088;11.642;2023-01-25T05:51:57;96711.97;;;-0.45;100.00
26978;BME280;56314;48.088;11.642;2023-01-25T05:54:22;96711.03;;;-0.38;100.00
26978;BME280;56314;48.088;11.642;2023-01-25T05:56:48;96705.03;;;-0.40;100.00
26978;BME280;56314;48.088;11.642;2023-01-25T05:59:14;96707.59;;;-0.38;100.00
26978;BME280;56314;48.088;11.642;2023-01-25T06:01:39;96703.25;;;-0.35;100.00
26978;BME280;56314;48.088;11.642;2023-01-25T06:04:05;96704.16;;;-0.37;100.00
26978;BME280;56314;48.088;11.642;2023-01-25T06:06:30;96706.72;;;-0.39;100.00
26978;BME280;56314;48.088;11.642;2023-01-25T06:08:56;96703.28;;;-0.36;100.00
26978;BME280;56314;48.088;11.642;2023-01-25T06:11:23;96697.34;;;-0.44;100.00
26978;BME280;56314;48.088;11.642;2023-01-25T06:13:49;96705.03;;;-0.38;100.00
26978;BME280;56314;48.088;11.642;2023-01-25T06:16:16;96696.53;;;-0.48;100.00
26978;BME280;56314;48.088;11.642;2023-01-25T06:18:42;96687.94;;;-0.49;100.00
26978;BME280;56314;48.088;11.642;2023-01-25T06:21:08;96689.53;;;-0.40;100.00
26978;BME280;56314;48.088;11.642;2023-01-25T06:23:33;96682.63;;;-0.38;100.00
26978;BME280;56314;48.088;11.642;2023-01-25T06:26:04;96690.44;;;-0.42;100.00
26978;BME280;56314;48.088;11.642;2023-01-25T06:28:34;96685.25;;;-0.41;100.00
26978;BME280;56314;48.088;11.642;2023-01-25T06:31:07;96692.06;;;-0.35;100.00
26978;BME280;56314;48.088;11.642;2023-01-25T06:33:33;96686.88;;;-0.35;100.00
26978;BME280;56314;48.088;11.642;2023-01-25T06:36:00;96686.94;;;-0.40;100.00
26978;BME280;56314;48.088;11.642;2023-01-25T06:38:26;96691.28;;;-0.40;100.00
26978;BME280;56314;48.088;11.642;2023-01-25T06:40:51;96680.03;;;-0.38;100.00
26978;BME280;56314;48.088;11.642;2023-01-25T06:43:17;96688.72;;;-0.43;100.00
26978;BME280;56314;48.088;11.642;2023-01-25T06:45:42;96688.69;;;-0.40;100.00
26978;BME280;56314;48.088;11.642;2023-01-25T06:48:07;96686.13;;;-0.40;100.00
26978;BME280;56314;48.088;11.642;2023-01-25T06:50:33;96682.78;;;-0.49;100.00
26978;BME280;56314;48.088;11.642;2023-01-25T06:52:58;96675.91;;;-0.51;100.00
26978;BME280;56314;48.088;11.642;2023-01-25T06:55:23;96676.72;;;-0.46;100.00
26978;BME280;56314;48.088;11.642;2023-01-25T06:57:49;96671.47;;;-0.40;100.00
26978;BME280;56314;48.088;11.642;2023-01-25T07:00:15;96657.72;;;-0.40;100.00
26978;BME280;56314;48.088;11.642;2023-01-25T07:02:41;96655.22;;;-0.45;100.00
26978;BME280;56314;48.088;11.642;2023-01-25T07:05:06;96648.34;;;-0.48;100.00
26978;BME280;56314;48.088;11.642;2023-01-25T07:07:32;96652.59;;;-0.43;100.00
26978;BME280;56314;48.088;11.642;2023-01-25T07:09:57;96655.28;;;-0.50;100.00
26978;BME280;56314;48.088;11.642;2023-01-25T07:12:24;96653.47;;;-0.44;100.00
26978;BME280;56314;48.088;11.642;2023-01-25T07:14:50;96657.78;;;-0.45;100.00
26978;BME280;56314;48.088;11.642;2023-01-25T07:17:15;96653.53;;;-0.49;100.00
26978;BME280;56314;48.088;11.642;2023-01-25T07:19:41;96652.69;;;-0.50;100.00
26978;BME280;56314;48.088;11.642;2023-01-25T07:22:06;96653.56;;;-0.52;100.00
26978;BME280;56314;48.088;11.642;2023-01-25T07:24:31;96652.72;;;-0.53;100.00
26978;BME280;56314;48.088;11.642;2023-01-25T07:26:57;96647.47;;;-0.45;100.00
26978;BME280;56314;48.088;11.642;2023-01-25T07:29:22;96650.88;;;-0.44;100.00
26978;BME280;56314;48.088;11.642;2023-01-25T07:31:47;96647.41;;;-0.40;100.00
26978;BME280;56314;48.088;11.642;2023-01-25T07:34:13;96649.06;;;-0.38;100.00
26978;BME280;56314;48.088;11.642;2023-01-25T07:36:39;96646.53;;;-0.39;100.00
26978;BME280;56314;48.088;11.642;2023-01-25T07:39:05;96649.19;;;-0.44;100.00
26978;BME280;56314;48.088;11.642;2023-01-25T07:41:33;96647.25;;;-0.31;100.00
26978;BME280;56314;48.088;11.642;2023-01-25T07:43:58;96649.94;;;-0.37;100.00
26978;BME280;56314;48.088;11.642;2023-01-25T07:46:24;96657.63;;;-0.33;100.00
26978;BME280;56314;48.088;11.642;2023-01-25T07:48:51;96647.31;;;-0.34;100.00
26978;BME280;56314;48.088;11.642;2023-01-25T07:51:18;96658.50;;;-0.35;99.46
26978;BME280;56314;48.088;11.642;2023-01-25T07:54:05;96654.28;;;-0.39;100.00
26978;BME280;56314;48.088;11.642;2023-01-25T07:56:35;96655.13;;;-0.40;100.00
26978;BME280;56314;48.088;11.642;2023-01-25T07:59:03;96653.28;;;-0.30;100.00
26978;BME280;56314;48.088;11.642;2023-01-25T08:01:29;96651.44;;;-0.22;100.00
26978;BME280;56314;48.088;11.642;2023-01-25T08:03:56;96639.31;;;-0.17;100.00
26978;BME280;56314;48.088;11.642;2023-01-25T08:06:27;96651.59;;;-0.33;99.36
26978;BME280;56314;48.088;11.642;2023-01-25T08:08:54;96661.03;;;-0.32;99.89
26978;BME280;56314;48.088;11.642;2023-01-25T08:11:25;96662.00;;;-0.41;100.00
26978;BME280;56314;48.088;11.642;2023-01-25T08:13:51;96655.88;;;-0.30;100.00
26978;BME280;56314;48.088;11.642;2023-01-25T08:16:18;96649.00;;;-0.32;100.00
26978;BME280;56314;48.088;11.642;2023-01-25T08:18:52;96648.91;;;-0.25;100.00
26978;BME280;56314;48.088;11.642;2023-01-25T08:21:19;96647.22;;;-0.28;100.00
26978;BME280;56314;48.088;11.642;2023-01-25T08:23:44;96643.59;;;-0.14;100.00
26978;BME280;56314;48.088;11.642;2023-01-25T08:26:12;96645.41;;;-0.23;99.67
26978;BME280;56314;48.088;11.642;2023-01-25T08:28:38;96645.44;;;-0.24;99.06
26978;BME280;56314;48.088;11.642;2023-01-25T08:31:15;96646.25;;;-0.21;100.00
26978;BME280;56314;48.088;11.642;2023-01-25T08:33:41;96640.94;;;-0.11;99.04
26978;BME280;56314;48.088;11.642;2023-01-25T08:36:09;96634.19;;;-0.19;99.21
26978;BME280;56314;48.088;11.642;2023-01-25T08:38:35;96641.22;;;-0.30;99.33
26978;BME280;56314;48.088;11.642;2023-01-25T08:41:08;96642.06;;;-0.29;100.00
26978;BME280;56314;48.088;11.642;2023-01-25T08:43:34;96642.06;;;-0.29;99.77
26978;BME280;56314;48.088;11.642;2023-01-25T08:46:00;96646.34;;;-0.28;99.51
26978;BME280;56314;48.088;11.642;2023-01-25T08:48:25;96644.00;;;-0.44;99.26
26978;BME280;56314;48.088;11.642;2023-01-25T08:50:50;96631.91;;;-0.40;100.00
26978;BME280;56314;48.088;11.642;2023-01-25T08:53:16;96633.59;;;-0.38;100.00
26978;BME280;56314;48.088;11.642;2023-01-25T08:55:41;96630.06;;;-0.30;100.00
26978;BME280;56314;48.088;11.642;2023-01-25T08:58:11;96632.69;;;-0.35;100.00
26978;BME280;56314;48.088;11.642;2023-01-25T09:00:38;96641.25;;;-0.33;100.00
26978;BME280;56314;48.088;11.642;2023-01-25T09:03:04;96617.94;;;-0.25;100.00
26978;BME280;56314;48.088;11.642;2023-01-25T09:05:29;96624.78;;;-0.24;100.00
26978;BME280;56314;48.088;11.642;2023-01-25T09:07:54;96625.63;;;-0.22;100.00
26978;BME280;56314;48.088;11.642;2023-01-25T09:10:20;96613.56;;;-0.22;99.81
26978;BME280;56314;48.088;11.642;2023-01-25T09:12:45;96615.31;;;-0.24;99.11
26978;BME280;56314;48.088;11.642;2023-01-25T09:15:10;96618.84;;;-0.28;98.94
26978;BME280;56314;48.088;11.642;2023-01-25T09:17:36;96619.78;;;-0.34;99.62
26978;BME280;56314;48.088;11.642;2023-01-25T09:20:07;96612.81;;;-0.28;99.48
26978;BME280;56314;48.088;11.642;2023-01-25T09:22:33;96618.72;;;-0.22;98.40
26978;BME280;56314;48.088;11.642;2023-01-25T09:24:58;96612.88;;;-0.32;98.29
26978;BME280;56314;48.088;11.642;2023-01-25T09:27:24;96619.16;;;-0.50;99.70
26978;BME280;56314;48.088;11.642;2023-01-25T09:29:49;96617.44;;;-0.51;99.73
26978;BME280;56314;48.088;11.642;2023-01-25T09:32:14;96619.94;;;-0.46;100.00
26978;BME280;56314;48.088;11.642;2023-01-25T09:34:40;96612.09;;;-0.38;100.00
26978;BME280;56314;48.088;11.642;2023-01-25T09:37:05;96608.50;;;-0.28;100.00
26978;BME280;56314;48.088;11.642;2023-01-25T09:39:30;96612.69;;;-0.21;100.00
26978;BME280;56314;48.088;11.642;2023-01-25T09:49:49;96601.63;;;-0.29;100.00
26978;BME280;56314;48.088;11.642;2023-01-25T09:54:51;96607.72;;;-0.33;99.38
26978;BME280;56314;48.088;11.642;2023-01-25T09:57:25;96613.84;;;-0.40;99.95
26978;BME280;56314;48.088;11.642;2023-01-25T09:59:51;96608.41;;;-0.22;99.78
26978;BME280;56314;48.088;11.642;2023-01-25T10:02:41;96599.03;;;-0.26;99.51
26978;BME280;56314;48.088;11.642;2023-01-25T10:05:20;96593.84;;;-0.26;99.50
26978;BME280;56314;48.088;11.642;2023-01-25T10:08:19;96590.34;;;-0.22;98.79
26978;BME280;56314;48.088;11.642;2023-01-25T10:10:47;96586.75;;;-0.13;98.73
26978;BME280;56314;48.088;11.642;2023-01-25T10:13:20;96576.53;;;-0.19;99.00
26978;BME280;56314;48.088;11.642;2023-01-25T10:15:49;96584.16;;;-0.11;99.65
26978;BME280;56314;48.088;11.642;2023-01-25T10:21:18;96573.53;;;0.07;99.06
26978;BME280;56314;48.088;11.642;2023-01-25T10:24:18;96566.78;;;0.00;98.79
26978;BME280;56314;48.088;11.642;2023-01-25T10:26:50;96571.78;;;0.09;98.59
26978;BME280;56314;48.088;11.642;2023-01-25T10:29:19;96570.84;;;0.13;98.00
26978;BME280;56314;48.088;11.642;2023-01-25T10:31:49;96561.41;;;0.11;97.93
26978;BME280;56314;48.088;11.642;2023-01-25T10:34:27;96570.03;;;0.10;97.34
26978;BME280;56314;48.088;11.642;2023-01-25T10:37:01;96569.22;;;0.08;95.66
26978;BME280;56314;48.088;11.642;2023-01-25T10:39:28;96563.31;;;-0.01;97.25
26978;BME280;56314;48.088;11.642;2023-01-25T10:41:58;96565.94;;;-0.02;96.22
26978;BME280;56314;48.088;11.642;2023-01-25T10:44:25;96553.91;;;-0.05;95.94
26978;BME280;56314;48.088;11.642;2023-01-25T10:47:15;96552.19;;;-0.04;96.04
26978;BME280;56314;48.088;11.642;2023-01-25T10:49:55;96548.00;;;-0.11;96.01
26978;BME280;56314;48.088;11.642;2023-01-25T10:52:24;96545.50;;;-0.16;96.10
26978;BME280;56314;48.088;11.642;2023-01-25T10:57:47;96536.00;;;-0.12;96.85
26978;BME280;56314;48.088;11.642;2023-01-25T11:00:38;96538.56;;;-0.14;97.11
26978;BME280;56314;48.088;11.642;2023-01-25T11:03:05;96523.97;;;-0.15;96.17
26978;BME280;56314;48.088;11.642;2023-01-25T11:05:37;96531.66;;;-0.12;97.01
26978;BME280;56314;48.088;11.642;2023-01-25T11:08:23;96522.25;;;-0.16;96.48
26978;BME280;56314;48.088;11.642;2023-01-25T11:10:49;96510.31;;;-0.22;97.25
26978;BME280;56314;48.088;11.642;2023-01-25T11:13:16;96508.50;;;-0.17;97.80
26978;BME280;56314;48.088;11.642;2023-01-25T11:18:18;96496.31;;;-0.08;97.37
26978;BME280;56314;48.088;11.642;2023-01-25T11:20:44;96498.06;;;-0.09;97.68
26978;BME280;56314;48.088;11.642;2023-01-25T11:23:21;96497.19;;;-0.08;97.89
26978;BME280;56314;48.088;11.642;2023-01-25T11:25:47;96497.88;;;0.01;97.59
26978;BME280;56314;48.088;11.642;2023-01-25T11:28:26;96491.16;;;-0.08;96.68
26978;BME280;56314;48.088;11.642;2023-01-25T11:30:52;96477.41;;;-0.09;96.87
26978;BME280;56314;48.088;11.642;2023-01-25T11:33:20;96481.59;;;-0.03;96.98
26978;BME280;56314;48.088;11.642;2023-01-25T11:39:27;96477.19;;;0.04;96.25
26978;BME280;56314;48.088;11.642;2023-01-25T11:52:42;96447.72;;;0.14;96.23
26978;BME280;56314;48.088;11.642;2023-01-25T11:55:28;96440.00;;;0.11;95.87
26978;BME280;56314;48.088;11.642;2023-01-25T12:00:40;96429.00;;;0.01;96.73
26978;BME280;56314;48.088;11.642;2023-01-25T12:05:54;96419.59;;;-0.02;97.34
26978;BME280;56314;48.088;11.642;2023-01-25T12:17:00;96399.38;;;0.19;96.57
26978;BME280;56314;48.088;11.642;2023-01-25T12:19:38;96396.06;;;0.14;95.06
26978;BME280;56314;48.088;11.642;2023-01-25T12:30:20;96376.13;;;0.21;95.16
26978;BME280;56314;48.088;11.642;2023-01-25T12:32:52;96368.31;;;0.22;94.90
26978;BME280;56314;48.088;11.642;2023-01-25T12:37:58;96363.03;;;0.28;95.54
26978;BME280;56314;48.088;11.642;2023-01-25T12:43:27;96361.44;;;0.21;95.91
26978;BME280;56314;48.088;11.642;2023-01-25T12:45:54;96358.88;;;0.21;96.39
26978;BME280;56314;48.088;11.642;2023-01-25T12:48:42;96357.00;;;0.29;96.62
26978;BME280;56314;48.088;11.642;2023-01-25T12:51:12;96339.91;;;0.24;96.92
26978;BME280;56314;48.088;11.642;2023-01-25T12:53:41;96349.41;;;0.20;96.78
26978;BME280;56314;48.088;11.642;2023-01-25T12:56:13;96344.91;;;0.30;97.25
26978;BME280;56314;48.088;11.642;2023-01-25T12:58:48;96340.69;;;0.26;97.04
26978;BME280;56314;48.088;11.642;2023-01-25T13:01:34;96343.31;;;0.24;96.30
26978;BME280;56314;48.088;11.642;2023-01-25T13:12:10;96330.63;;;0.13;96.77
26978;BME280;56314;48.088;11.642;2023-01-25T13:14:36;96338.31;;;0.17;96.82
26978;BME280;56314;48.088;11.642;2023-01-25T13:17:22;96334.03;;;0.15;96.49
26978;BME280;56314;48.088;11.642;2023-01-25T13:19:50;96334.25;;;0.05;96.44
26978;BME280;56314;48.088;11.642;2023-01-25T13:25:18;96335.91;;;0.07;95.62
26978;BME280;56314;48.088;11.642;2023-01-25T13:27:44;96327.53;;;-0.04;95.27
26978;BME280;56314;48.088;11.642;2023-01-25T13:30:31;96332.72;;;-0.04;95.75
26978;BME280;56314;48.088;11.642;2023-01-25T13:33:05;96325.06;;;-0.10;95.88
26978;BME280;56314;48.088;11.642;2023-01-25T13:35:36;96331.28;;;-0.19;96.44
26978;BME280;56314;48.088;11.642;2023-01-25T13:40:35;96336.31;;;-0.13;97.01
26978;BME280;56314;48.088;11.642;2023-01-25T13:43:05;96324.28;;;-0.12;97.30
26978;BME280;56314;48.088;11.642;2023-01-25T13:45:41;96321.41;;;0.02;96.50
26978;BME280;56314;48.088;11.642;2023-01-25T13:48:12;96317.00;;;0.05;96.01
26978;BME280;56314;48.088;11.642;2023-01-25T13:50:44;96317.13;;;0.01;97.50
26978;BME280;56314;48.088;11.642;2023-01-25T13:55:42;96304.25;;;-0.03;97.56
26978;BME280;56314;48.088;11.642;2023-01-25T14:00:52;96306.94;;;-0.07;98.67
26978;BME280;56314;48.088;11.642;2023-01-25T14:03:20;96302.88;;;-0.19;98.19
26978;BME280;56314;48.088;11.642;2023-01-25T14:05:50;96313.28;;;-0.22;98.75
26978;BME280;56314;48.088;11.642;2023-01-25T14:08:18;96303.00;;;-0.25;99.59
26978;BME280;56314;48.088;11.642;2023-01-25T14:10:44;96298.59;;;-0.20;99.28
26978;BME280;56314;48.088;11.642;2023-01-25T14:13:14;96300.31;;;-0.19;98.66
26978;BME280;56314;48.088;11.642;2023-01-25T14:15:39;96299.50;;;-0.23;100.00
26978;BME280;56314;48.088;11.642;2023-01-25T14:20:33;96297.88;;;-0.28;99.77